createdAt,value
2022-10-06T00:01:06.046Z,99917.72
2022-10-06T00:03:34.567Z,99926.38
2022-10-06T00:06:05.282Z,99936.09
2022-10-06T00:08:35.315Z,99940.78
2022-10-06T00:11:04.740Z,99938.72
2022-10-06T00:13:34.290Z,99943.28
2022-10-06T00:16:03.263Z,99945.78
2022-10-06T00:18:56.857Z,99962.72
2022-10-06T00:21:26.614Z,99966.38
2022-10-06T00:23:54.978Z,99964.72
2022-10-06T00:26:24.200Z,99971.19
2022-10-06T00:28:52.593Z,99974.75
2022-10-06T00:31:21.018Z,99981.25
2022-10-06T00:33:50.847Z,99982.56
2022-10-06T00:36:19.873Z,99982.56
2022-10-06T00:38:49.723Z,99986.28
2022-10-06T00:41:19.238Z,99990.22
2022-10-06T00:43:50.906Z,99991.94
2022-10-06T00:46:26.409Z,99994.75
2022-10-06T00:49:01.500Z,99998.47
2022-10-06T00:51:31.636Z,100007.44
2022-10-06T00:54:02.180Z,100014.75
2022-10-06T00:56:30.728Z,100011.03
2022-10-06T00:58:59.487Z,100014.69
2022-10-06T01:01:31.865Z,100020.88
2022-10-06T01:04:04.024Z,100015.69
2022-10-06T01:06:45.090Z,100027.53
2022-10-06T01:09:17.066Z,100025.81
2022-10-06T01:11:47.351Z,100028.56
2022-10-06T01:14:15.996Z,100025.19
2022-10-06T01:16:47.590Z,100037.69
2022-10-06T01:19:27.038Z,100042.88
2022-10-06T01:21:58.322Z,100043.09
2022-10-06T01:24:28.624Z,100047.56
2022-10-06T01:26:58.853Z,100052.06
2022-10-06T01:29:27.685Z,100055.53
2022-10-06T01:31:56.474Z,100052.28
2022-10-06T01:34:24.889Z,100058.59
2022-10-06T01:36:53.330Z,100062.97
2022-10-06T01:39:21.871Z,100074.53
2022-10-06T01:41:51.714Z,100072.03
2022-10-06T01:44:20.113Z,100074.78
2022-10-06T01:46:48.771Z,100076.72
2022-10-06T01:49:17.152Z,100082.09
2022-10-06T01:51:46.665Z,100081.97
2022-10-06T01:54:16.035Z,100089.19
2022-10-06T01:56:44.504Z,100087.53
2022-10-06T01:59:14.319Z,100094.56
2022-10-06T02:01:43.242Z,100091.25
2022-10-06T02:04:11.873Z,100084.38
2022-10-06T02:06:40.318Z,100094.81
2022-10-06T02:09:08.827Z,100093.91
2022-10-06T02:11:37.240Z,100094.94
2022-10-06T02:14:06.117Z,100101.16
2022-10-06T02:16:36.041Z,100105.84
2022-10-06T02:19:04.442Z,100124.31
2022-10-06T02:21:33.076Z,100122.91
2022-10-06T02:24:01.529Z,100136.81
2022-10-06T02:26:30.443Z,100128.94
2022-10-06T02:28:58.890Z,100139.44
2022-10-06T02:31:27.335Z,100137.00
2022-10-06T02:33:58.860Z,100135.41
2022-10-06T02:36:27.654Z,100140.97
2022-10-06T02:38:57.332Z,100141.56
2022-10-06T02:41:26.111Z,100146.13
2022-10-06T02:43:55.064Z,100148.72
2022-10-06T02:46:24.570Z,100149.66
2022-10-06T02:48:54.544Z,100144.28
2022-10-06T02:51:24.341Z,100140.88
2022-10-06T02:53:53.331Z,100147.66
2022-10-06T02:56:23.211Z,100154.66
2022-10-06T02:58:53.061Z,100145.97
2022-10-06T03:01:34.332Z,100161.16
2022-10-06T03:04:11.588Z,100165.47
2022-10-06T03:06:43.520Z,100176.22
2022-10-06T03:09:23.642Z,100179.56
2022-10-06T03:11:53.213Z,100181.41
2022-10-06T03:14:28.597Z,100188.50
2022-10-06T03:16:57.249Z,100180.63
2022-10-06T03:19:28.222Z,100193.91
2022-10-06T03:21:58.231Z,100193.19
2022-10-06T03:24:35.130Z,100209.19
2022-10-06T03:27:03.728Z,100203.22
2022-10-06T03:29:32.194Z,100219.06
2022-10-06T03:32:00.760Z,100215.56
2022-10-06T03:34:29.937Z,100223.47
2022-10-06T03:37:01.476Z,100234.16
2022-10-06T03:39:30.557Z,100237.59
2022-10-06T03:41:58.894Z,100245.38
2022-10-06T03:44:27.584Z,100240.94
2022-10-06T03:46:56.041Z,100245.53
2022-10-06T03:49:24.614Z,100250.94
2022-10-06T03:51:54.793Z,100265.19
2022-10-06T03:54:28.997Z,100267.75
2022-10-06T03:56:58.035Z,100265.13
2022-10-06T03:59:29.072Z,100258.16
2022-10-06T04:01:58.659Z,100275.09
2022-10-06T04:04:31.051Z,100278.50
2022-10-06T04:07:03.656Z,100286.44
2022-10-06T04:09:33.909Z,100282.81
2022-10-06T04:12:03.084Z,100276.81
2022-10-06T04:14:34.025Z,100288.53
2022-10-06T04:17:02.441Z,100285.91
2022-10-06T04:19:33.785Z,100292.03
2022-10-06T04:22:02.104Z,100300.84
2022-10-06T04:24:31.611Z,100306.13
2022-10-06T04:27:15.236Z,100307.13
2022-10-06T04:29:45.468Z,100311.56
2022-10-06T04:32:15.793Z,100310.75
2022-10-06T04:34:44.303Z,100312.53
2022-10-06T04:37:13.365Z,100321.34
2022-10-06T04:39:42.923Z,100319.31
2022-10-06T04:42:13.378Z,100325.63
2022-10-06T04:44:41.975Z,100324.81
2022-10-06T04:47:10.296Z,100330.13
2022-10-06T04:49:39.453Z,100331.94
2022-10-06T04:52:07.889Z,100336.41
2022-10-06T04:54:38.556Z,100339.91
2022-10-06T04:57:09.044Z,100340.91
2022-10-06T04:59:57.937Z,100348.88
2022-10-06T05:02:30.091Z,100342.72
2022-10-06T05:04:58.788Z,100346.25
2022-10-06T05:07:27.139Z,100353.31
2022-10-06T05:09:57.779Z,100358.72
2022-10-06T05:12:26.125Z,100366.63
2022-10-06T05:14:56.338Z,100371.91
2022-10-06T05:17:25.008Z,100370.13
2022-10-06T05:19:54.062Z,100386.84
2022-10-06T05:22:22.483Z,100384.16
2022-10-06T05:24:53.721Z,100386.84
2022-10-06T05:27:22.121Z,100387.66
2022-10-06T05:29:50.467Z,100398.22
2022-10-06T05:32:20.357Z,100397.38
2022-10-06T05:34:48.936Z,100396.44
2022-10-06T05:37:17.566Z,100407.94
2022-10-06T05:39:46.621Z,100404.50
2022-10-06T05:42:15.007Z,100412.41
2022-10-06T05:44:44.146Z,100417.69
2022-10-06T05:47:14.591Z,100422.91
2022-10-06T05:49:45.075Z,100421.19
2022-10-06T05:52:13.386Z,100425.56
2022-10-06T05:54:42.342Z,100429.06
2022-10-06T05:57:11.617Z,100439.63
2022-10-06T05:59:40.576Z,100435.22
2022-10-06T06:02:10.165Z,100440.47
2022-10-06T06:04:42.887Z,100453.59
2022-10-06T06:07:12.919Z,100449.19
2022-10-06T06:09:43.828Z,100451.81
2022-10-06T06:12:16.459Z,100454.44
2022-10-06T06:15:06.986Z,100456.13
2022-10-06T06:17:48.372Z,100467.47
2022-10-06T06:20:16.906Z,100466.47
2022-10-06T06:22:46.596Z,100462.00
2022-10-06T06:25:15.089Z,100469.94
2022-10-06T06:28:09.099Z,100468.16
2022-10-06T06:30:38.478Z,100466.31
2022-10-06T06:33:06.886Z,100468.97
2022-10-06T06:35:35.295Z,100464.47
2022-10-06T06:38:11.812Z,100466.84
2022-10-06T06:40:41.650Z,100470.34
2022-10-06T06:43:13.196Z,100471.97
2022-10-06T06:46:05.859Z,100479.19
2022-10-06T06:49:21.285Z,100484.97
2022-10-06T06:51:59.751Z,100491.66
2022-10-06T06:54:31.145Z,100492.66
2022-10-06T06:57:16.492Z,100491.66
2022-10-06T06:59:46.159Z,100496.53
2022-10-06T07:02:17.247Z,100498.53
2022-10-06T07:07:24.940Z,100509.03
2022-10-06T07:09:55.310Z,100507.72
2022-10-06T07:12:26.064Z,100513.72
2022-10-06T07:15:16.494Z,100509.22
2022-10-06T07:18:09.991Z,100514.34
2022-10-06T07:20:56.344Z,100518.50
2022-10-06T07:23:43.102Z,100526.81
2022-10-06T07:26:22.507Z,100527.09
2022-10-06T07:29:00.981Z,100533.97
2022-10-06T07:31:33.111Z,100530.31
2022-10-06T07:34:02.444Z,100539.94
2022-10-06T07:36:46.376Z,100544.00
2022-10-06T07:39:15.113Z,100544.69
2022-10-06T07:41:44.871Z,100544.22
2022-10-06T07:44:13.257Z,100544.19
2022-10-06T07:46:52.276Z,100543.25
2022-10-06T07:49:33.753Z,100549.56
2022-10-06T07:52:02.496Z,100559.91
2022-10-06T07:54:38.471Z,100559.69
2022-10-06T07:57:46.951Z,100569.41
2022-10-06T08:00:26.602Z,100561.19
2022-10-06T08:02:55.647Z,100571.28
2022-10-06T08:05:24.017Z,100569.53
2022-10-06T08:07:53.217Z,100575.84
2022-10-06T08:10:21.865Z,100573.50
2022-10-06T08:12:51.978Z,100586.25
2022-10-06T08:15:21.984Z,100596.75
2022-10-06T08:17:53.846Z,100584.91
2022-10-06T08:20:27.808Z,100590.03
2022-10-06T08:23:07.003Z,100596.44
2022-10-06T08:25:36.187Z,100590.72
2022-10-06T08:28:06.403Z,100593.91
2022-10-06T08:30:47.341Z,100597.75
2022-10-06T08:33:15.757Z,100593.59
2022-10-06T08:35:44.265Z,100594.81
2022-10-06T08:38:14.670Z,100585.59
2022-10-06T08:40:55.555Z,100600.34
2022-10-06T08:43:27.017Z,100597.44
2022-10-06T08:46:00.994Z,100605.00
2022-10-06T08:48:45.717Z,100605.63
2022-10-06T08:51:26.381Z,100609.56
2022-10-06T08:54:04.457Z,100617.41
2022-10-06T08:56:51.893Z,100620.91
2022-10-06T08:59:22.272Z,100616.59
2022-10-06T09:01:54.655Z,100623.47
2022-10-06T09:04:35.120Z,100622.75
2022-10-06T09:07:11.401Z,100623.69
2022-10-06T09:09:51.667Z,100628.41
2022-10-06T09:12:32.947Z,100647.25
2022-10-06T09:15:17.417Z,100638.94
2022-10-06T09:18:02.250Z,100649.88
2022-10-06T09:20:35.151Z,100644.03
2022-10-06T09:23:07.931Z,100640.66
2022-10-06T09:25:38.690Z,100653.13
2022-10-06T09:28:17.434Z,100654.59
2022-10-06T09:30:48.048Z,100655.25
2022-10-06T09:33:24.741Z,100657.88
2022-10-06T09:36:12.417Z,100660.44
2022-10-06T09:38:53.828Z,100663.47
2022-10-06T09:41:32.223Z,100663.91
2022-10-06T09:44:04.493Z,100651.44
2022-10-06T09:46:39.589Z,100655.94
2022-10-06T09:49:19.838Z,100657.94
2022-10-06T09:52:04.135Z,100665.44
2022-10-06T09:54:34.719Z,100666.53
2022-10-06T09:57:10.718Z,100666.78
2022-10-06T09:59:47.701Z,100663.31
2022-10-06T10:02:27.907Z,100660.00
2022-10-06T10:04:58.092Z,100669.78
2022-10-06T10:07:48.205Z,100656.19
2022-10-06T10:10:22.201Z,100666.25
2022-10-06T10:12:51.673Z,100651.91
2022-10-06T10:15:31.051Z,100654.16
2022-10-06T10:18:02.946Z,100672.22
2022-10-06T10:20:35.065Z,100668.47
2022-10-06T10:23:08.006Z,100670.19
2022-10-06T10:25:58.446Z,100669.13
2022-10-06T10:28:52.898Z,100666.06
2022-10-06T10:31:56.091Z,100656.72
2022-10-06T10:34:42.003Z,100676.63
2022-10-06T10:37:13.446Z,100676.72
2022-10-06T10:39:48.620Z,100673.31
2022-10-06T10:42:33.374Z,100678.34
2022-10-06T10:45:04.252Z,100667.91
2022-10-06T10:47:36.584Z,100680.69
2022-10-06T10:50:14.235Z,100674.44
2022-10-06T10:52:45.489Z,100674.72
2022-10-06T10:55:26.977Z,100672.72
2022-10-06T10:57:58.319Z,100674.59
2022-10-06T11:00:42.516Z,100683.81
2022-10-06T11:03:11.577Z,100686.22
2022-10-06T11:06:11.012Z,100682.22
2022-10-06T11:08:46.381Z,100691.16
2022-10-06T11:11:21.489Z,100695.00
2022-10-06T11:13:57.562Z,100686.00
2022-10-06T11:16:39.894Z,100689.88
2022-10-06T11:19:16.658Z,100690.28
2022-10-06T11:22:04.261Z,100685.63
2022-10-06T11:24:41.478Z,100694.22
2022-10-06T11:27:47.387Z,100696.94
2022-10-06T11:30:19.477Z,100686.66
2022-10-06T11:33:01.528Z,100700.13
2022-10-06T11:35:35.428Z,100694.75
2022-10-06T11:38:13.966Z,100681.25
2022-10-06T11:41:22.056Z,100685.53
2022-10-06T11:43:57.953Z,100683.00
2022-10-06T11:46:48.812Z,100674.72
2022-10-06T11:49:48.270Z,100677.34
2022-10-06T11:52:36.674Z,100679.94
2022-10-06T11:55:15.953Z,100674.84
2022-10-06T12:01:04.794Z,100670.34
2022-10-06T12:04:09.482Z,100668.06
2022-10-06T12:07:07.480Z,100668.84
2022-10-06T12:09:53.762Z,100664.63
2022-10-06T12:13:01.894Z,100657.03
2022-10-06T12:19:03.691Z,100672.38
2022-10-06T12:21:46.681Z,100656.25
2022-10-06T12:24:34.502Z,100651.81
2022-10-06T12:27:26.219Z,100653.41
2022-10-06T12:30:02.978Z,100639.63
2022-10-06T12:32:52.228Z,100658.66
2022-10-06T12:35:39.964Z,100657.50
2022-10-06T12:38:43.066Z,100637.75
2022-10-06T12:41:14.857Z,100643.50
2022-10-06T12:44:13.226Z,100644.34
2022-10-06T12:46:45.767Z,100645.00
2022-10-06T12:49:31.936Z,100645.47
2022-10-06T12:52:09.139Z,100654.19
2022-10-06T12:54:46.703Z,100643.59
2022-10-06T12:57:19.837Z,100637.97
2022-10-06T12:59:58.372Z,100640.06
2022-10-06T13:02:28.813Z,100638.72
2022-10-06T13:05:01.200Z,100647.50
2022-10-06T13:07:31.422Z,100642.38
2022-10-06T13:10:18.965Z,100637.00
2022-10-06T13:12:51.968Z,100640.13
2022-10-06T13:15:23.617Z,100631.13
2022-10-06T13:18:11.373Z,100629.97
2022-10-06T13:20:42.412Z,100639.38
2022-10-06T13:23:24.588Z,100641.44
2022-10-06T13:25:58.941Z,100639.66
2022-10-06T13:28:45.357Z,100629.06
2022-10-06T13:31:23.999Z,100631.81
2022-10-06T13:33:56.624Z,100627.50
2022-10-06T13:36:25.959Z,100627.28
2022-10-06T13:38:54.426Z,100620.75
2022-10-06T13:41:35.236Z,100626.06
2022-10-06T13:44:34.654Z,100615.91
2022-10-06T13:47:16.623Z,100618.03
2022-10-06T13:49:49.757Z,100619.47
2022-10-06T13:52:21.298Z,100620.25
2022-10-06T13:54:53.482Z,100627.63
2022-10-06T13:57:38.021Z,100621.88
2022-10-06T14:00:18.278Z,100621.72
2022-10-06T14:02:48.598Z,100623.34
2022-10-06T14:05:26.676Z,100620.75
2022-10-06T14:07:57.674Z,100619.34
2022-10-06T14:10:31.547Z,100614.91
2022-10-06T14:13:14.965Z,100627.47
2022-10-06T14:15:49.919Z,100622.41
2022-10-06T14:18:20.554Z,100622.56
2022-10-06T14:20:51.974Z,100615.63
2022-10-06T14:23:42.109Z,100617.28
2022-10-06T14:26:12.790Z,100622.63
2022-10-06T14:28:58.389Z,100620.28
2022-10-06T14:31:29.593Z,100616.28
2022-10-06T14:33:58.239Z,100617.16
2022-10-06T14:36:28.500Z,100625.63
2022-10-06T14:39:04.783Z,100623.34
2022-10-06T14:41:33.382Z,100626.69
2022-10-06T14:44:05.500Z,100616.00
2022-10-06T14:46:35.988Z,100624.78
2022-10-06T14:49:14.828Z,100619.06
2022-10-06T14:51:44.703Z,100619.03
2022-10-06T14:54:13.755Z,100617.94
2022-10-06T14:56:42.889Z,100622.22
2022-10-06T14:59:23.276Z,100620.53
2022-10-06T15:01:53.273Z,100618.28
2022-10-06T15:04:24.638Z,100616.91
2022-10-06T15:07:13.771Z,100615.50
2022-10-06T15:09:42.667Z,100608.84
2022-10-06T15:12:11.071Z,100617.19
2022-10-06T15:14:39.446Z,100612.16
2022-10-06T15:17:09.379Z,100606.31
2022-10-06T15:19:42.572Z,100602.03
2022-10-06T15:22:12.510Z,100610.34
2022-10-06T15:24:40.861Z,100614.34
2022-10-06T15:27:28.583Z,100606.56
2022-10-06T15:29:57.573Z,100600.59
2022-10-06T15:32:27.397Z,100597.41
2022-10-06T15:34:55.914Z,100598.72
2022-10-06T15:37:24.295Z,100592.03
2022-10-06T15:40:13.436Z,100596.78
2022-10-06T15:42:49.255Z,100596.88
2022-10-06T15:45:17.731Z,100597.28
2022-10-06T15:47:52.702Z,100595.47
2022-10-06T15:50:21.057Z,100598.59
2022-10-06T15:52:49.514Z,100601.38
2022-10-06T15:55:17.855Z,100598.84
2022-10-06T15:57:47.136Z,100607.16
2022-10-06T16:00:16.359Z,100603.00
2022-10-06T16:02:47.953Z,100610.44
2022-10-06T16:05:43.923Z,100609.06
2022-10-06T16:08:14.906Z,100604.09
2022-10-06T16:10:43.306Z,100606.13
2022-10-06T16:13:11.929Z,100600.13
2022-10-06T16:15:59.495Z,100598.66
2022-10-06T16:18:28.584Z,100600.81
2022-10-06T16:20:58.406Z,100602.03
2022-10-06T16:23:26.933Z,100603.09
2022-10-06T16:26:00.652Z,100609.44
2022-10-06T16:28:29.937Z,100608.94
2022-10-06T16:30:58.491Z,100617.06
2022-10-06T16:33:27.008Z,100604.91
2022-10-06T16:35:56.404Z,100606.06
2022-10-06T16:38:30.126Z,100608.09
2022-10-06T16:41:01.820Z,100606.53
2022-10-06T16:43:31.915Z,100604.16
2022-10-06T16:46:02.757Z,100606.22
2022-10-06T16:48:37.795Z,100602.84
2022-10-06T16:51:08.098Z,100603.03
2022-10-06T16:53:43.183Z,100597.97
2022-10-06T16:56:14.364Z,100599.03
2022-10-06T16:58:54.625Z,100602.78
2022-10-06T17:01:25.213Z,100596.97
2022-10-06T17:04:00.505Z,100599.78
2022-10-06T17:06:39.447Z,100610.56
2022-10-06T17:09:11.746Z,100604.59
2022-10-06T17:11:40.586Z,100601.31
2022-10-06T17:14:09.179Z,100605.00
2022-10-06T17:16:41.737Z,100606.03
2022-10-06T17:19:11.819Z,100602.75
2022-10-06T17:21:46.219Z,100608.22
2022-10-06T17:24:18.643Z,100604.94
2022-10-06T17:26:49.661Z,100602.41
2022-10-06T17:29:19.415Z,100601.63
2022-10-06T17:31:49.241Z,100609.56
2022-10-06T17:34:21.410Z,100612.34
2022-10-06T17:36:51.876Z,100608.16
2022-10-06T17:39:24.336Z,100614.31
2022-10-06T17:41:54.628Z,100613.56
2022-10-06T17:44:26.744Z,100610.22
2022-10-06T17:46:57.265Z,100609.47
2022-10-06T17:49:26.395Z,100617.38
2022-10-06T17:51:56.132Z,100616.59
2022-10-06T17:54:28.757Z,100618.41
2022-10-06T17:56:59.169Z,100616.72
2022-10-06T17:59:30.097Z,100616.81
2022-10-06T18:02:00.699Z,100622.13
2022-10-06T18:04:29.946Z,100618.63
2022-10-06T18:06:58.571Z,100619.56
2022-10-06T18:09:28.321Z,100614.41
2022-10-06T18:11:56.849Z,100618.91
2022-10-06T18:14:27.586Z,100611.97
2022-10-06T18:17:01.849Z,100615.50
2022-10-06T18:19:31.412Z,100621.56
2022-10-06T18:22:02.031Z,100617.28
2022-10-06T18:24:32.667Z,100617.38
2022-10-06T18:27:02.261Z,100616.56
2022-10-06T18:29:34.068Z,100618.31
2022-10-06T18:37:40.377Z,100604.34
2022-10-06T18:40:11.589Z,100614.94
2022-10-06T18:42:40.077Z,100605.28
2022-10-06T18:45:27.738Z,100606.19
2022-10-06T18:48:13.919Z,100615.03
2022-10-06T18:50:42.616Z,100612.38
2022-10-06T18:53:10.919Z,100611.53
2022-10-06T18:55:41.552Z,100621.19
2022-10-06T18:58:10.155Z,100620.31
2022-10-06T19:00:39.349Z,100614.16
2022-10-06T19:03:07.992Z,100609.78
2022-10-06T19:05:36.514Z,100615.06
2022-10-06T19:08:05.120Z,100615.91
2022-10-06T19:10:35.130Z,100617.69
2022-10-06T19:13:05.794Z,100607.13
2022-10-06T19:15:34.143Z,100607.16
2022-10-06T19:18:04.037Z,100608.94
2022-10-06T19:20:32.419Z,100614.22
2022-10-06T19:23:00.759Z,100611.56
2022-10-06T19:25:29.256Z,100608.06
2022-10-06T19:27:57.800Z,100604.56
2022-10-06T19:30:27.709Z,100606.31
2022-10-06T19:32:56.082Z,100607.19
2022-10-06T19:35:24.573Z,100610.69
2022-10-06T19:37:52.964Z,100616.81
2022-10-06T19:40:21.462Z,100615.06
2022-10-06T19:42:48.984Z,100617.72
2022-10-06T19:45:18.982Z,100615.94
2022-10-06T19:47:48.992Z,100610.69
2022-10-06T19:50:20.109Z,100618.56
2022-10-06T19:52:48.666Z,100617.69
2022-10-06T19:55:17.237Z,100612.44
2022-10-06T19:57:45.769Z,100606.31
2022-10-06T20:00:15.560Z,100614.19
2022-10-06T20:02:44.897Z,100613.28
2022-10-06T20:05:16.718Z,100614.16
2022-10-06T20:07:47.302Z,100609.78
2022-10-06T20:10:16.625Z,100613.28
2022-10-06T20:12:45.010Z,100615.00
2022-10-06T20:15:14.017Z,100619.38
2022-10-06T20:17:43.162Z,100619.34
2022-10-06T20:20:11.784Z,100621.13
2022-10-06T20:22:41.764Z,100627.22
2022-10-06T20:25:10.882Z,100624.63
2022-10-06T20:27:39.229Z,100621.09
2022-10-06T20:30:08.885Z,100622.88
2022-10-06T20:32:37.677Z,100624.63
2022-10-06T20:35:06.305Z,100622.84
2022-10-06T20:37:34.995Z,100620.22
2022-10-06T20:40:22.262Z,100619.31
2022-10-06T20:42:54.689Z,100625.44
2022-10-06T20:45:23.366Z,100617.53
2022-10-06T20:47:51.762Z,100610.50
2022-10-06T20:50:20.446Z,100617.53
2022-10-06T20:52:48.992Z,100614.91
2022-10-06T20:55:18.816Z,100610.50
2022-10-06T20:57:49.418Z,100606.97
2022-10-06T21:00:18.715Z,100607.78
2022-10-06T21:02:47.106Z,100615.63
2022-10-06T21:05:15.562Z,100608.66
2022-10-06T21:07:44.120Z,100606.91
2022-10-06T21:10:12.935Z,100606.09
2022-10-06T21:12:43.110Z,100592.91
2022-10-06T21:15:11.799Z,100597.34
2022-10-06T21:17:42.290Z,100593.81
2022-10-06T21:20:11.028Z,100597.22
2022-10-06T21:22:39.461Z,100593.66
2022-10-06T21:25:08.904Z,100598.97
2022-10-06T21:27:37.246Z,100584.97
2022-10-06T21:30:10.126Z,100591.97
2022-10-06T21:32:38.577Z,100606.00
2022-10-06T21:35:08.351Z,100593.72
2022-10-06T21:37:36.769Z,100590.28
2022-10-06T21:40:05.810Z,100598.97
2022-10-06T21:42:34.222Z,100595.47
2022-10-06T21:45:02.596Z,100590.19
2022-10-06T21:47:32.431Z,100589.31
2022-10-06T21:50:01.009Z,100587.63
2022-10-06T21:52:30.655Z,100584.91
2022-10-06T21:54:59.091Z,100580.50
2022-10-06T21:57:27.412Z,100584.03
2022-10-06T21:59:55.796Z,100585.75
2022-10-06T22:02:24.366Z,100579.56
2022-10-06T22:04:54.210Z,100576.88
2022-10-06T22:07:22.582Z,100572.53
2022-10-06T22:09:50.918Z,100569.06
2022-10-06T22:12:19.536Z,100562.91
2022-10-06T22:14:47.857Z,100563.72
2022-10-06T22:17:16.415Z,100568.88
2022-10-06T22:19:44.724Z,100566.25
2022-10-06T22:22:14.483Z,100563.63
2022-10-06T22:24:42.852Z,100561.88
2022-10-06T22:27:11.163Z,100558.38
2022-10-06T22:29:39.510Z,100560.22
2022-10-06T22:32:07.842Z,100554.94
2022-10-06T22:34:36.256Z,100549.66
2022-10-06T22:37:04.705Z,100547.97
2022-10-06T22:39:34.418Z,100554.00
2022-10-06T22:42:02.783Z,100552.22
2022-10-06T22:44:31.125Z,100551.38
2022-10-06T22:46:59.517Z,100543.56
2022-10-06T22:49:28.100Z,100543.53
2022-10-06T22:51:56.477Z,100540.00
2022-10-06T22:54:27.608Z,100538.22
2022-10-06T22:56:57.826Z,100533.84
2022-10-06T22:59:26.234Z,100532.09
2022-10-06T23:01:54.660Z,100533.94
2022-10-06T23:04:23.019Z,100526.03
2022-10-06T23:06:51.439Z,100523.41
2022-10-06T23:09:19.787Z,100519.13
2022-10-06T23:11:48.238Z,100514.78
2022-10-06T23:14:18.112Z,100515.69
2022-10-06T23:16:46.634Z,100506.13
2022-10-06T23:19:15.234Z,100506.16
2022-10-06T23:21:43.831Z,100500.03
2022-10-06T23:24:12.389Z,100500.94
2022-10-06T23:26:40.715Z,100493.94
2022-10-06T23:29:12.717Z,100489.56
2022-10-06T23:31:42.716Z,100490.44
2022-10-06T23:34:11.125Z,100481.69
2022-10-06T23:36:39.520Z,100477.31
2022-10-06T23:39:07.916Z,100474.69
2022-10-06T23:41:36.395Z,100483.44
2022-10-06T23:44:04.868Z,100471.19
2022-10-06T23:46:33.260Z,100472.94
2022-10-06T23:49:03.277Z,100460.66
2022-10-06T23:51:31.688Z,100463.28
2022-10-06T23:54:00.039Z,100467.66
2022-10-06T23:56:28.387Z,100472.03
2022-10-06T23:58:56.766Z,100470.25
